createdAt,value
2022-09-28T00:01:23.183Z,11.92
2022-09-28T00:03:52.378Z,11.82
2022-09-28T00:06:24.397Z,11.80
2022-09-28T00:08:51.511Z,11.78
2022-09-28T00:11:20.692Z,11.85
2022-09-28T00:13:52.633Z,11.88
2022-09-28T00:16:22.855Z,11.86
2022-09-28T00:18:51.145Z,11.90
2022-09-28T00:21:23.320Z,11.89
2022-09-28T00:24:14.542Z,11.78
2022-09-28T00:26:55.299Z,11.74
2022-09-28T00:29:27.342Z,11.81
2022-09-28T00:32:02.079Z,11.78
2022-09-28T00:34:35.126Z,11.76
2022-09-28T00:37:03.099Z,11.81
2022-09-28T00:39:31.731Z,11.83
2022-09-28T00:41:58.882Z,11.79
2022-09-28T00:44:35.812Z,11.86
2022-09-28T00:47:39.566Z,11.80
2022-09-28T00:50:32.365Z,11.86
2022-09-28T00:53:11.921Z,11.95
2022-09-28T00:55:41.976Z,12.06
2022-09-28T00:58:12.973Z,12.08
2022-09-28T01:00:42.968Z,12.09
2022-09-28T01:03:10.181Z,12.00
2022-09-28T01:05:39.442Z,12.05
2022-09-28T01:08:08.714Z,12.15
2022-09-28T01:10:35.306Z,12.21
2022-09-28T01:13:01.912Z,11.95
2022-09-28T01:15:30.417Z,11.85
2022-09-28T01:18:19.577Z,11.86
2022-09-28T01:21:10.343Z,11.80
2022-09-28T01:24:00.393Z,11.78
2022-09-28T01:26:42.992Z,11.87
2022-09-28T01:29:35.628Z,11.96
2022-09-28T01:32:34.337Z,12.02
2022-09-28T01:35:09.942Z,12.07
2022-09-28T01:37:41.008Z,11.98
2022-09-28T01:40:10.277Z,12.04
2022-09-28T01:42:39.683Z,12.03
2022-09-28T01:45:14.322Z,12.13
2022-09-28T01:47:41.561Z,12.12
2022-09-28T01:50:16.766Z,12.21
2022-09-28T01:53:15.313Z,12.16
2022-09-28T01:55:50.491Z,12.15
2022-09-28T01:58:44.161Z,12.23
2022-09-28T02:01:19.976Z,12.19
2022-09-28T02:03:52.801Z,12.20
2022-09-28T02:06:27.496Z,12.25
2022-09-28T02:09:02.016Z,12.30
2022-09-28T02:11:39.974Z,12.21
2022-09-28T02:14:12.643Z,12.25
2022-09-28T02:16:41.204Z,12.23
2022-09-28T02:19:14.544Z,12.28
2022-09-28T02:22:10.477Z,12.32
2022-09-28T02:24:40.456Z,12.36
2022-09-28T02:27:23.122Z,12.37
2022-09-28T02:30:13.083Z,12.32
2022-09-28T02:32:44.313Z,12.27
2022-09-28T02:35:23.527Z,12.29
2022-09-28T02:37:50.327Z,12.33
2022-09-28T02:40:22.068Z,12.43
2022-09-28T02:42:56.592Z,12.44
2022-09-28T02:45:52.342Z,12.41
2022-09-28T02:48:43.048Z,12.39
2022-09-28T02:52:02.353Z,12.45
2022-09-28T02:54:56.556Z,12.43
2022-09-28T02:57:42.560Z,12.42
2022-09-28T03:00:17.472Z,12.43
2022-09-28T03:03:19.051Z,12.48
2022-09-28T03:06:03.799Z,12.51
2022-09-28T03:08:52.181Z,12.51
2022-09-28T03:11:28.791Z,12.51
2022-09-28T03:13:56.202Z,12.51
2022-09-28T03:16:31.917Z,12.50
2022-09-28T03:18:58.587Z,12.49
2022-09-28T03:21:25.152Z,12.49
2022-09-28T03:23:51.978Z,12.53
2022-09-28T03:26:19.762Z,12.56
2022-09-28T03:28:46.631Z,12.53
2022-09-28T03:31:19.281Z,12.47
2022-09-28T03:33:46.106Z,12.41
2022-09-28T03:36:14.621Z,12.38
2022-09-28T03:38:41.183Z,12.35
2022-09-28T03:41:07.921Z,12.34
2022-09-28T03:43:36.886Z,12.37
2022-09-28T03:46:04.703Z,12.42
2022-09-28T03:48:36.345Z,12.43
2022-09-28T03:51:07.009Z,12.45
2022-09-28T03:53:33.623Z,12.43
2022-09-28T03:56:19.335Z,12.46
2022-09-28T03:58:45.973Z,12.41
2022-09-28T04:01:17.574Z,12.33
2022-09-28T04:03:46.660Z,12.33
2022-09-28T04:06:14.290Z,12.33
2022-09-28T04:08:40.823Z,12.34
2022-09-28T04:11:08.408Z,12.36
2022-09-28T04:13:35.051Z,12.42
2022-09-28T04:16:02.086Z,12.45
2022-09-28T04:18:33.750Z,12.46
2022-09-28T04:21:14.386Z,12.48
2022-09-28T04:23:44.830Z,12.50
2022-09-28T04:26:20.762Z,12.54
2022-09-28T04:29:07.073Z,12.54
2022-09-28T04:31:42.426Z,12.54
2022-09-28T04:34:09.482Z,12.52
2022-09-28T04:36:36.082Z,12.51
2022-09-28T04:39:03.062Z,12.55
2022-09-28T04:41:31.060Z,12.55
2022-09-28T04:43:57.574Z,12.54
2022-09-28T04:46:26.039Z,12.52
2022-09-28T04:49:04.943Z,12.52
2022-09-28T04:51:43.059Z,12.54
2022-09-28T04:54:09.595Z,12.57
2022-09-28T04:56:36.109Z,12.59
2022-09-28T04:59:03.385Z,12.60
2022-09-28T05:01:30.362Z,12.60
2022-09-28T05:03:56.983Z,12.59
2022-09-28T05:09:26.499Z,12.59
2022-09-28T05:11:53.093Z,12.56
2022-09-28T05:14:24.853Z,12.56
2022-09-28T05:16:52.254Z,12.56
2022-09-28T05:19:39.143Z,12.58
2022-09-28T05:22:07.251Z,12.58
2022-09-28T05:24:40.809Z,12.60
2022-09-28T05:27:07.386Z,12.60
2022-09-28T05:29:34.325Z,12.58
2022-09-28T05:32:24.101Z,12.58
2022-09-28T05:35:17.158Z,12.58
2022-09-28T05:37:46.491Z,12.59
2022-09-28T05:40:13.699Z,12.61
2022-09-28T05:42:41.324Z,12.63
2022-09-28T05:45:09.627Z,12.63
2022-09-28T05:47:39.461Z,12.64
2022-09-28T05:50:08.678Z,12.70
2022-09-28T05:52:35.265Z,12.74
2022-09-28T05:55:04.920Z,12.78
2022-09-28T05:57:31.529Z,12.80
2022-09-28T05:59:58.669Z,12.79
2022-09-28T06:02:25.802Z,12.73
2022-09-28T06:04:53.826Z,12.60
2022-09-28T06:07:23.818Z,12.50
2022-09-28T06:09:50.283Z,12.48
2022-09-28T06:12:20.132Z,12.51
2022-09-28T06:14:54.264Z,12.74
2022-09-28T06:17:21.655Z,12.98
2022-09-28T06:19:57.104Z,13.20
2022-09-28T06:22:26.044Z,13.36
2022-09-28T06:25:02.579Z,13.43
2022-09-28T06:27:29.195Z,13.40
2022-09-28T06:29:55.757Z,13.48
2022-09-28T06:32:22.314Z,13.49
2022-09-28T06:34:55.420Z,13.49
2022-09-28T06:37:25.936Z,13.50
2022-09-28T06:39:53.495Z,13.47
2022-09-28T06:42:20.355Z,13.45
2022-09-28T06:45:26.903Z,13.46
2022-09-28T06:48:16.425Z,13.40
2022-09-28T06:50:43.487Z,13.38
2022-09-28T06:53:30.315Z,13.35
2022-09-28T06:56:11.319Z,13.40
2022-09-28T06:58:37.874Z,13.36
2022-09-28T07:01:05.720Z,13.17
2022-09-28T07:03:46.234Z,13.01
2022-09-28T07:06:20.532Z,12.94
2022-09-28T07:09:28.182Z,12.84
2022-09-28T07:12:13.366Z,12.81
2022-09-28T07:14:56.013Z,12.82
2022-09-28T07:17:24.265Z,12.85
2022-09-28T07:19:52.874Z,13.02
2022-09-28T07:22:28.680Z,13.27
2022-09-28T07:25:01.609Z,13.41
2022-09-28T07:27:47.208Z,13.47
2022-09-28T07:30:17.900Z,13.38
2022-09-28T07:33:04.101Z,13.30
2022-09-28T07:35:53.106Z,13.30
2022-09-28T07:38:21.648Z,13.33
2022-09-28T07:41:07.264Z,13.39
2022-09-28T07:43:35.310Z,13.51
2022-09-28T07:46:02.114Z,13.59
2022-09-28T07:48:29.933Z,13.61
2022-09-28T07:51:08.852Z,13.72
2022-09-28T07:53:40.789Z,13.92
2022-09-28T07:56:21.762Z,13.99
2022-09-28T07:58:55.052Z,14.21
2022-09-28T08:01:45.262Z,14.34
2022-09-28T08:04:13.918Z,14.33
2022-09-28T08:06:43.709Z,14.56
2022-09-28T08:09:11.835Z,14.59
2022-09-28T08:11:59.595Z,14.56
2022-09-28T08:15:00.108Z,14.85
2022-09-28T08:17:35.071Z,15.11
2022-09-28T08:20:24.635Z,15.26
2022-09-28T08:22:51.579Z,15.29
2022-09-28T08:25:18.788Z,15.26
2022-09-28T08:27:45.820Z,15.27
2022-09-28T08:30:12.548Z,15.32
2022-09-28T08:32:51.882Z,15.42
2022-09-28T08:35:41.943Z,15.49
2022-09-28T08:38:15.410Z,15.79
2022-09-28T08:41:07.441Z,16.02
2022-09-28T08:44:00.178Z,16.00
2022-09-28T08:46:42.290Z,16.38
2022-09-28T08:49:42.083Z,16.59
2022-09-28T08:52:41.550Z,16.53
2022-09-28T08:55:38.860Z,16.69
2022-09-28T08:58:18.171Z,16.87
2022-09-28T09:00:50.888Z,16.86
2022-09-28T09:03:30.588Z,16.53
2022-09-28T09:07:01.671Z,16.08
2022-09-28T09:10:13.374Z,15.70
2022-09-28T09:13:03.450Z,15.66
2022-09-28T09:15:33.037Z,15.73
2022-09-28T09:18:22.372Z,15.53
2022-09-28T09:21:14.113Z,15.71
2022-09-28T09:23:48.004Z,16.46
2022-09-28T09:26:24.422Z,17.02
2022-09-28T09:29:24.719Z,17.69
2022-09-28T09:32:12.482Z,18.36
2022-09-28T09:35:16.197Z,18.58
2022-09-28T09:38:34.166Z,17.86
2022-09-28T09:41:56.443Z,22.73
2022-09-28T09:44:59.728Z,27.04
2022-09-28T09:48:01.178Z,24.65
2022-09-28T09:50:44.411Z,24.76
2022-09-28T09:53:29.742Z,27.74
2022-09-28T09:56:03.909Z,29.21
2022-09-28T09:58:42.675Z,30.41
2022-09-28T10:01:40.339Z,29.47
2022-09-28T10:04:40.331Z,26.37
2022-09-28T10:07:23.482Z,24.17
2022-09-28T10:09:53.953Z,22.85
2022-09-28T10:12:39.183Z,22.03
2022-09-28T10:15:12.147Z,21.94
2022-09-28T10:17:48.465Z,21.84
2022-09-28T10:20:39.441Z,24.85
2022-09-28T10:23:24.730Z,29.08
2022-09-28T10:25:56.740Z,31.13
2022-09-28T10:28:49.071Z,33.35
2022-09-28T10:31:54.655Z,32.16
2022-09-28T10:34:29.830Z,30.11
2022-09-28T10:37:04.041Z,30.09
2022-09-28T10:39:51.742Z,32.38
2022-09-28T10:42:21.813Z,29.75
2022-09-28T10:45:00.630Z,29.07
2022-09-28T10:47:37.601Z,32.79
2022-09-28T10:50:22.499Z,33.26
2022-09-28T10:52:53.447Z,31.18
2022-09-28T10:56:04.162Z,32.81
2022-09-28T10:58:41.941Z,33.27
2022-09-28T11:01:23.168Z,30.03
2022-09-28T11:03:56.333Z,27.59
2022-09-28T11:06:25.880Z,26.01
2022-09-28T11:08:53.348Z,24.55
2022-09-28T11:11:20.693Z,23.00
2022-09-28T11:14:03.552Z,22.02
2022-09-28T11:16:44.512Z,20.85
2022-09-28T11:19:21.349Z,20.38
2022-09-28T11:21:49.035Z,20.03
2022-09-28T11:24:24.530Z,19.78
2022-09-28T11:27:07.353Z,19.46
2022-09-28T11:29:55.651Z,19.26
2022-09-28T11:33:01.060Z,18.97
2022-09-28T11:36:14.518Z,18.79
2022-09-28T11:38:56.431Z,18.63
2022-09-28T11:42:19.600Z,18.59
2022-09-28T11:44:49.352Z,19.02
2022-09-28T11:47:41.578Z,19.42
2022-09-28T11:50:24.096Z,19.56
2022-09-28T11:52:57.379Z,20.80
2022-09-28T11:55:36.382Z,20.97
2022-09-28T11:58:27.178Z,21.16
2022-09-28T12:01:02.182Z,21.52
2022-09-28T12:04:04.922Z,22.47
2022-09-28T12:06:42.421Z,23.18
2022-09-28T12:09:22.795Z,22.86
2022-09-28T12:12:02.396Z,22.49
2022-09-28T12:14:47.100Z,21.88
2022-09-28T12:17:32.792Z,21.32
2022-09-28T12:20:22.622Z,20.83
2022-09-28T12:23:15.482Z,20.37
2022-09-28T12:25:52.566Z,19.89
2022-09-28T12:28:26.955Z,19.63
2022-09-28T12:30:57.126Z,19.70
2022-09-28T12:33:23.851Z,19.68
2022-09-28T12:36:10.175Z,19.71
2022-09-28T12:39:30.718Z,19.81
2022-09-28T12:42:09.212Z,19.80
2022-09-28T12:44:43.183Z,19.76
2022-09-28T12:47:29.104Z,19.59
2022-09-28T12:50:41.092Z,19.34
2022-09-28T12:53:39.061Z,18.97
2022-09-28T12:56:18.070Z,18.90
2022-09-28T12:59:00.965Z,18.88
2022-09-28T13:02:04.719Z,19.01
2022-09-28T13:04:49.720Z,19.18
2022-09-28T13:07:53.291Z,19.50
2022-09-28T13:10:45.899Z,19.67
2022-09-28T13:13:33.852Z,19.75
2022-09-28T13:16:24.593Z,19.48
2022-09-28T13:19:06.653Z,19.17
2022-09-28T13:21:56.646Z,19.09
2022-09-28T13:24:33.537Z,18.99
2022-09-28T13:27:09.173Z,19.06
2022-09-28T13:32:12.638Z,19.31
2022-09-28T13:34:39.621Z,19.16
2022-09-28T13:37:19.941Z,19.01
2022-09-28T13:39:52.317Z,18.99
2022-09-28T13:42:22.162Z,19.18
2022-09-28T13:45:09.457Z,19.51
2022-09-28T13:47:45.054Z,19.67
2022-09-28T13:50:14.816Z,19.86
2022-09-28T13:52:47.730Z,19.98
2022-09-28T13:55:24.110Z,20.00
2022-09-28T13:58:15.501Z,19.81
2022-09-28T14:01:23.046Z,19.77
2022-09-28T14:04:20.855Z,19.76
2022-09-28T14:07:10.669Z,19.67
2022-09-28T14:09:45.682Z,19.54
2022-09-28T14:12:34.163Z,19.32
2022-09-28T14:15:01.896Z,19.27
2022-09-28T14:17:28.366Z,19.22
2022-09-28T14:20:00.382Z,19.19
2022-09-28T14:22:49.614Z,19.19
2022-09-28T14:25:24.750Z,19.25
2022-09-28T14:28:23.214Z,19.32
2022-09-28T14:30:54.402Z,19.26
2022-09-28T14:33:20.946Z,19.23
2022-09-28T14:35:55.514Z,19.12
2022-09-28T14:38:54.409Z,19.06
2022-09-28T14:41:31.157Z,18.88
2022-09-28T14:44:12.558Z,18.63
2022-09-28T14:46:47.566Z,18.59
2022-09-28T14:49:20.192Z,18.62
2022-09-28T14:51:52.784Z,18.62
2022-09-28T14:54:24.627Z,18.75
2022-09-28T14:56:54.247Z,18.80
2022-09-28T14:59:27.008Z,18.80
2022-09-28T15:02:06.195Z,18.78
2022-09-28T15:04:39.026Z,18.69
2022-09-28T15:07:05.996Z,18.54
2022-09-28T15:09:35.104Z,18.36
2022-09-28T15:12:25.401Z,18.20
2022-09-28T15:14:55.152Z,18.04
2022-09-28T15:17:27.537Z,18.05
2022-09-28T15:20:12.387Z,18.17
2022-09-28T15:22:45.348Z,18.23
2022-09-28T15:25:20.243Z,18.28
2022-09-28T15:27:52.897Z,18.22
2022-09-28T15:30:19.632Z,18.07
2022-09-28T15:32:46.375Z,17.91
2022-09-28T15:35:20.397Z,17.77
2022-09-28T15:37:54.865Z,17.63
2022-09-28T15:40:34.979Z,17.53
2022-09-28T15:43:02.600Z,17.38
2022-09-28T15:45:38.113Z,17.30
2022-09-28T15:48:19.103Z,17.22
2022-09-28T15:51:00.067Z,17.18
2022-09-28T15:53:26.965Z,17.11
2022-09-28T15:56:01.401Z,16.96
2022-09-28T15:58:29.031Z,16.82
2022-09-28T16:01:22.071Z,16.79
2022-09-28T16:03:48.745Z,16.71
2022-09-28T16:06:15.338Z,16.66
2022-09-28T16:08:43.696Z,16.57
2022-09-28T16:11:27.721Z,16.56
2022-09-28T16:14:05.898Z,16.56
2022-09-28T16:17:03.992Z,16.54
2022-09-28T16:19:36.531Z,16.59
2022-09-28T16:22:13.430Z,16.66
2022-09-28T16:24:40.135Z,16.64
2022-09-28T16:27:25.328Z,16.69
2022-09-28T16:30:21.587Z,16.65
2022-09-28T16:33:01.885Z,16.53
2022-09-28T16:35:30.099Z,16.43
2022-09-28T16:38:11.535Z,16.50
2022-09-28T16:40:50.048Z,16.47
2022-09-28T16:43:28.666Z,16.41
2022-09-28T16:46:17.549Z,16.48
2022-09-28T16:48:49.696Z,16.48
2022-09-28T16:51:17.766Z,16.48
2022-09-28T16:54:03.874Z,16.41
2022-09-28T16:56:32.535Z,16.34
2022-09-28T16:58:59.733Z,16.30
2022-09-28T17:01:26.427Z,16.24
2022-09-28T17:03:53.082Z,16.20
2022-09-28T17:06:22.336Z,16.20
2022-09-28T17:08:51.388Z,16.18
2022-09-28T17:11:24.129Z,16.16
2022-09-28T17:13:52.288Z,16.08
2022-09-28T17:16:28.262Z,15.98
2022-09-28T17:19:05.692Z,15.92
2022-09-28T17:21:32.357Z,15.95
2022-09-28T17:23:58.913Z,16.00
2022-09-28T17:26:31.569Z,16.01
2022-09-28T17:28:59.437Z,15.99
2022-09-28T17:31:26.604Z,15.98
2022-09-28T17:33:54.488Z,16.05
2022-09-28T17:36:21.980Z,15.98
2022-09-28T17:38:49.522Z,15.83
2022-09-28T17:41:20.404Z,15.45
2022-09-28T17:43:47.581Z,15.26
2022-09-28T17:46:27.896Z,15.16
2022-09-28T17:48:57.566Z,15.10
2022-09-28T17:51:24.148Z,15.16
2022-09-28T17:53:50.714Z,15.14
2022-09-28T17:56:17.234Z,15.09
2022-09-28T17:58:44.014Z,15.00
2022-09-28T18:01:10.796Z,15.06
2022-09-28T18:03:38.428Z,15.08
2022-09-28T18:06:16.169Z,15.11
2022-09-28T18:08:43.796Z,15.05
2022-09-28T18:11:11.367Z,15.04
2022-09-28T18:13:38.560Z,14.98
2022-09-28T18:16:05.826Z,14.92
2022-09-28T18:18:39.819Z,14.73
2022-09-28T18:21:07.469Z,14.66
2022-09-28T18:23:38.021Z,14.67
2022-09-28T18:26:11.100Z,14.66
2022-09-28T18:28:37.976Z,14.65
2022-09-28T18:31:08.939Z,14.59
2022-09-28T18:33:35.767Z,14.56
2022-09-28T18:36:02.852Z,14.49
2022-09-28T18:38:29.476Z,14.35
2022-09-28T18:40:56.422Z,14.34
2022-09-28T18:43:23.235Z,14.38
2022-09-28T18:45:49.815Z,14.44
2022-09-28T18:48:16.368Z,14.45
2022-09-28T18:50:42.948Z,14.56
2022-09-28T18:53:12.639Z,14.67
2022-09-28T18:55:41.718Z,14.69
2022-09-28T18:58:10.095Z,14.65
2022-09-28T19:00:41.822Z,14.69
2022-09-28T19:03:11.212Z,14.71
2022-09-28T19:05:42.901Z,14.65
2022-09-28T19:08:10.196Z,14.58
2022-09-28T19:10:36.962Z,14.56
2022-09-28T19:13:03.659Z,14.43
2022-09-28T19:15:30.294Z,14.29
2022-09-28T19:17:57.064Z,14.28
2022-09-28T19:20:23.800Z,14.14
2022-09-28T19:22:50.658Z,13.98
2022-09-28T19:25:17.449Z,14.04
2022-09-28T19:27:44.226Z,14.08
2022-09-28T19:30:11.328Z,13.97
2022-09-28T19:32:37.887Z,13.96
2022-09-28T19:35:05.121Z,13.92
2022-09-28T19:37:37.580Z,13.76
2022-09-28T19:40:06.443Z,13.65
2022-09-28T19:42:34.034Z,13.54
2022-09-28T19:45:00.618Z,13.53
2022-09-28T19:47:27.174Z,13.52
2022-09-28T19:49:53.900Z,13.53
2022-09-28T19:52:20.527Z,13.35
2022-09-28T19:54:58.076Z,13.30
2022-09-28T19:57:27.646Z,13.29
2022-09-28T19:59:59.254Z,13.26
2022-09-28T20:02:27.713Z,13.16
2022-09-28T20:04:54.541Z,13.16
2022-09-28T20:07:21.488Z,13.16
2022-09-28T20:09:48.131Z,13.25
2022-09-28T20:12:14.769Z,13.42
2022-09-28T20:14:41.362Z,13.63
2022-09-28T20:17:08.055Z,13.63
2022-09-28T20:19:34.990Z,13.53
2022-09-28T20:22:02.855Z,13.51
2022-09-28T20:24:30.372Z,13.54
2022-09-28T20:26:57.763Z,13.63
2022-09-28T20:29:24.884Z,13.74
2022-09-28T20:31:51.940Z,13.76
2022-09-28T20:34:18.905Z,13.84
2022-09-28T20:36:45.589Z,13.77
2022-09-28T20:39:13.125Z,13.67
2022-09-28T20:41:40.370Z,13.71
2022-09-28T20:44:07.561Z,13.59
2022-09-28T20:46:38.346Z,13.51
2022-09-28T20:49:05.866Z,13.53
2022-09-28T20:51:32.731Z,13.55
2022-09-28T20:54:00.129Z,13.43
2022-09-28T20:56:29.162Z,13.37
2022-09-28T20:58:55.887Z,13.35
2022-09-28T21:01:27.510Z,13.43
2022-09-28T21:03:55.897Z,13.45
2022-09-28T21:06:25.493Z,13.39
2022-09-28T21:08:54.995Z,13.37
2022-09-28T21:11:24.004Z,13.40
2022-09-28T21:13:55.478Z,13.49
2022-09-28T21:16:25.844Z,13.49
2022-09-28T21:18:53.189Z,13.46
2022-09-28T21:21:21.783Z,13.36
2022-09-28T21:23:55.607Z,13.30
2022-09-28T21:26:26.191Z,13.16
2022-09-28T21:29:01.997Z,13.10
2022-09-28T21:31:45.713Z,13.02
2022-09-28T21:34:20.537Z,13.00
2022-09-28T21:36:54.661Z,12.88
2022-09-28T21:39:21.485Z,12.86
2022-09-28T21:41:48.571Z,12.84
2022-09-28T21:44:15.173Z,12.83
2022-09-28T21:46:42.280Z,12.78
2022-09-28T21:49:10.331Z,12.77
2022-09-28T21:51:37.969Z,12.73
2022-09-28T21:54:04.722Z,12.70
2022-09-28T21:56:31.318Z,12.74
2022-09-28T21:58:58.055Z,12.76
2022-09-28T22:01:25.986Z,12.73
2022-09-28T22:03:55.183Z,12.73
2022-09-28T22:06:24.209Z,12.72
2022-09-28T22:08:50.944Z,12.69
2022-09-28T22:11:20.267Z,12.67
2022-09-28T22:13:50.077Z,12.65
2022-09-28T22:16:17.762Z,12.48
2022-09-28T22:18:44.648Z,12.25
2022-09-28T22:21:20.175Z,12.23
2022-09-28T22:23:47.256Z,12.26
2022-09-28T22:26:22.666Z,12.32
2022-09-28T22:28:52.330Z,12.33
2022-09-28T22:31:21.757Z,12.35
2022-09-28T22:33:48.545Z,12.28
2022-09-28T22:36:17.029Z,12.28
2022-09-28T22:38:44.850Z,12.33
2022-09-28T22:41:12.762Z,12.35
2022-09-28T22:43:39.404Z,12.30
2022-09-28T22:46:08.590Z,12.18
2022-09-28T22:48:35.970Z,12.22
2022-09-28T22:51:04.552Z,12.32
2022-09-28T22:53:31.132Z,12.45
2022-09-28T22:55:59.170Z,12.26
2022-09-28T22:58:25.804Z,12.22
2022-09-28T23:00:53.019Z,12.37
2022-09-28T23:03:19.591Z,12.35
2022-09-28T23:05:55.882Z,12.39
2022-09-28T23:08:23.639Z,12.37
2022-09-28T23:10:51.491Z,12.38
2022-09-28T23:13:18.718Z,12.34
2022-09-28T23:15:56.791Z,12.37
2022-09-28T23:18:24.588Z,12.32
2022-09-28T23:21:00.259Z,12.38
2022-09-28T23:23:26.962Z,12.42
2022-09-28T23:25:53.753Z,12.46
2022-09-28T23:28:21.709Z,12.45
2022-09-28T23:30:49.240Z,12.42
2022-09-28T23:33:17.209Z,12.38
2022-09-28T23:35:44.277Z,12.33
2022-09-28T23:38:17.818Z,12.29
2022-09-28T23:40:46.369Z,12.22
2022-09-28T23:43:13.517Z,12.14
2022-09-28T23:45:42.204Z,12.07
2022-09-28T23:48:09.152Z,11.96
2022-09-28T23:50:35.737Z,11.84
2022-09-28T23:53:02.279Z,11.72
2022-09-28T23:55:29.094Z,11.61
2022-09-28T23:57:56.645Z,11.64
